sensor_id;sensor_type;location;lat;lon;timestamp;temperature;humidity
9403;DHT22;4741;49.834;10.740;2024-01-16T00:02:21;-0.80;99.90
9403;DHT22;4741;49.834;10.740;2024-01-16T00:04:48;-0.80;99.90
9403;DHT22;4741;49.834;10.740;2024-01-16T00:07:15;-0.80;99.90
9403;DHT22;4741;49.834;10.740;2024-01-16T00:09:41;-0.80;99.90
9403;DHT22;4741;49.834;10.740;2024-01-16T00:12:08;-0.80;99.90
9403;DHT22;4741;49.834;10.740;2024-01-16T00:14:35;-0.80;99.90
9403;DHT22;4741;49.834;10.740;2024-01-16T00:17:03;-0.80;99.90
9403;DHT22;4741;49.834;10.740;2024-01-16T00:19:30;-0.80;99.90
9403;DHT22;4741;49.834;10.740;2024-01-16T00:21:56;-0.80;99.90
9403;DHT22;4741;49.834;10.740;2024-01-16T00:24:23;-0.90;99.90
9403;DHT22;4741;49.834;10.740;2024-01-16T00:26:50;-0.80;99.90
9403;DHT22;4741;49.834;10.740;2024-01-16T00:29:17;-0.80;99.90
9403;DHT22;4741;49.834;10.740;2024-01-16T00:31:44;-0.80;99.90
9403;DHT22;4741;49.834;10.740;2024-01-16T00:34:11;-0.80;99.90
9403;DHT22;4741;49.834;10.740;2024-01-16T00:36:38;-0.90;99.90
9403;DHT22;4741;49.834;10.740;2024-01-16T00:39:04;-0.80;99.90
9403;DHT22;4741;49.834;10.740;2024-01-16T00:41:31;-0.90;99.90
9403;DHT22;4741;49.834;10.740;2024-01-16T00:43:58;-0.90;99.90
9403;DHT22;4741;49.834;10.740;2024-01-16T00:46:25;-0.90;99.90
9403;DHT22;4741;49.834;10.740;2024-01-16T00:48:51;-0.90;99.90
9403;DHT22;4741;49.834;10.740;2024-01-16T00:51:18;-1.00;99.90
9403;DHT22;4741;49.834;10.740;2024-01-16T00:53:45;-0.90;99.90
9403;DHT22;4741;49.834;10.740;2024-01-16T00:56:12;-0.90;99.90
9403;DHT22;4741;49.834;10.740;2024-01-16T00:58:39;-0.90;99.90
9403;DHT22;4741;49.834;10.740;2024-01-16T01:01:06;-0.90;99.90
9403;DHT22;4741;49.834;10.740;2024-01-16T01:03:33;-0.90;99.90
9403;DHT22;4741;49.834;10.740;2024-01-16T01:06:00;-0.90;99.90
9403;DHT22;4741;49.834;10.740;2024-01-16T01:08:27;-0.90;99.90
9403;DHT22;4741;49.834;10.740;2024-01-16T01:10:54;-0.80;99.90
9403;DHT22;4741;49.834;10.740;2024-01-16T01:13:21;-0.80;99.90
9403;DHT22;4741;49.834;10.740;2024-01-16T01:15:48;-0.90;99.90
9403;DHT22;4741;49.834;10.740;2024-01-16T01:18:15;-0.90;99.90
9403;DHT22;4741;49.834;10.740;2024-01-16T01:20:42;-0.90;99.90
9403;DHT22;4741;49.834;10.740;2024-01-16T01:23:09;-0.80;99.90
9403;DHT22;4741;49.834;10.740;2024-01-16T01:25:36;-0.80;99.90
9403;DHT22;4741;49.834;10.740;2024-01-16T01:28:03;-0.80;99.90
9403;DHT22;4741;49.834;10.740;2024-01-16T01:30:29;-0.80;99.90
9403;DHT22;4741;49.834;10.740;2024-01-16T01:32:56;-0.90;99.90
9403;DHT22;4741;49.834;10.740;2024-01-16T01:35:23;-0.80;99.90
9403;DHT22;4741;49.834;10.740;2024-01-16T01:37:50;-0.80;99.90
9403;DHT22;4741;49.834;10.740;2024-01-16T01:40:17;-0.80;99.90
9403;DHT22;4741;49.834;10.740;2024-01-16T01:42:43;-0.80;99.90
9403;DHT22;4741;49.834;10.740;2024-01-16T01:45:10;-0.90;99.90
9403;DHT22;4741;49.834;10.740;2024-01-16T01:47:41;-0.90;99.90
9403;DHT22;4741;49.834;10.740;2024-01-16T01:50:10;-0.90;99.90
9403;DHT22;4741;49.834;10.740;2024-01-16T01:52:38;-0.90;99.90
9403;DHT22;4741;49.834;10.740;2024-01-16T01:55:07;-0.90;99.90
9403;DHT22;4741;49.834;10.740;2024-01-16T01:57:34;-0.80;99.90
9403;DHT22;4741;49.834;10.740;2024-01-16T02:00:01;-0.90;99.90
9403;DHT22;4741;49.834;10.740;2024-01-16T02:02:29;-0.90;99.90
9403;DHT22;4741;49.834;10.740;2024-01-16T02:04:56;-0.90;99.90
9403;DHT22;4741;49.834;10.740;2024-01-16T02:07:23;-0.90;99.90
9403;DHT22;4741;49.834;10.740;2024-01-16T02:09:50;-0.80;99.90
9403;DHT22;4741;49.834;10.740;2024-01-16T02:12:16;-0.90;99.90
9403;DHT22;4741;49.834;10.740;2024-01-16T02:14:43;-0.80;99.90
9403;DHT22;4741;49.834;10.740;2024-01-16T02:17:10;-0.80;99.90
9403;DHT22;4741;49.834;10.740;2024-01-16T02:19:37;-0.80;99.90
9403;DHT22;4741;49.834;10.740;2024-01-16T02:22:04;-0.90;99.90
9403;DHT22;4741;49.834;10.740;2024-01-16T02:24:35;-0.80;99.90
9403;DHT22;4741;49.834;10.740;2024-01-16T02:27:02;-0.80;99.90
9403;DHT22;4741;49.834;10.740;2024-01-16T02:29:29;-0.80;99.90
9403;DHT22;4741;49.834;10.740;2024-01-16T02:31:56;-0.80;99.90
9403;DHT22;4741;49.834;10.740;2024-01-16T02:34:23;-0.90;99.90
9403;DHT22;4741;49.834;10.740;2024-01-16T02:36:50;-0.90;99.90
9403;DHT22;4741;49.834;10.740;2024-01-16T02:39:17;-0.80;99.90
9403;DHT22;4741;49.834;10.740;2024-01-16T02:41:46;-0.80;99.90
9403;DHT22;4741;49.834;10.740;2024-01-16T02:44:12;-0.90;99.90
9403;DHT22;4741;49.834;10.740;2024-01-16T02:46:39;-0.90;99.90
9403;DHT22;4741;49.834;10.740;2024-01-16T02:49:06;-0.90;99.90
9403;DHT22;4741;49.834;10.740;2024-01-16T02:51:33;-0.90;99.90
9403;DHT22;4741;49.834;10.740;2024-01-16T02:54:00;-0.90;99.90
9403;DHT22;4741;49.834;10.740;2024-01-16T02:56:27;-0.90;99.90
9403;DHT22;4741;49.834;10.740;2024-01-16T02:58:54;-0.90;99.90
9403;DHT22;4741;49.834;10.740;2024-01-16T03:01:20;-0.90;99.90
9403;DHT22;4741;49.834;10.740;2024-01-16T03:03:47;-0.90;99.90
9403;DHT22;4741;49.834;10.740;2024-01-16T03:06:23;-0.90;99.90
9403;DHT22;4741;49.834;10.740;2024-01-16T03:08:51;-0.80;99.90
9403;DHT22;4741;49.834;10.740;2024-01-16T03:11:18;-0.80;99.90
9403;DHT22;4741;49.834;10.740;2024-01-16T03:13:45;-0.80;99.90
9403;DHT22;4741;49.834;10.740;2024-01-16T03:16:12;-0.90;99.90
9403;DHT22;4741;49.834;10.740;2024-01-16T03:18:38;-0.90;99.90
9403;DHT22;4741;49.834;10.740;2024-01-16T03:21:07;-0.80;99.90
9403;DHT22;4741;49.834;10.740;2024-01-16T03:23:35;-0.80;99.90
9403;DHT22;4741;49.834;10.740;2024-01-16T03:26:01;-0.80;99.90
9403;DHT22;4741;49.834;10.740;2024-01-16T03:28:30;-0.80;99.90
9403;DHT22;4741;49.834;10.740;2024-01-16T03:30:56;-0.80;99.90
9403;DHT22;4741;49.834;10.740;2024-01-16T03:33:23;-0.90;99.90
9403;DHT22;4741;49.834;10.740;2024-01-16T03:35:50;-0.90;99.90
9403;DHT22;4741;49.834;10.740;2024-01-16T03:38:17;-0.90;99.90
9403;DHT22;4741;49.834;10.740;2024-01-16T03:40:48;-0.90;99.90
9403;DHT22;4741;49.834;10.740;2024-01-16T03:43:16;-0.90;99.90
9403;DHT22;4741;49.834;10.740;2024-01-16T03:45:43;-0.90;99.90
9403;DHT22;4741;49.834;10.740;2024-01-16T03:48:11;-0.90;99.90
9403;DHT22;4741;49.834;10.740;2024-01-16T03:50:39;-0.90;99.90
9403;DHT22;4741;49.834;10.740;2024-01-16T03:53:10;-0.90;99.90
9403;DHT22;4741;49.834;10.740;2024-01-16T03:55:37;-0.90;99.90
9403;DHT22;4741;49.834;10.740;2024-01-16T03:58:05;-0.90;99.90
9403;DHT22;4741;49.834;10.740;2024-01-16T04:00:38;-0.90;99.90
9403;DHT22;4741;49.834;10.740;2024-01-16T04:03:05;-1.00;99.90
9403;DHT22;4741;49.834;10.740;2024-01-16T04:05:33;-1.10;99.90
9403;DHT22;4741;49.834;10.740;2024-01-16T04:08:00;-1.10;99.90
9403;DHT22;4741;49.834;10.740;2024-01-16T04:10:27;-1.30;99.90
9403;DHT22;4741;49.834;10.740;2024-01-16T04:12:54;-1.30;99.90
9403;DHT22;4741;49.834;10.740;2024-01-16T04:15:21;-1.30;99.90
9403;DHT22;4741;49.834;10.740;2024-01-16T04:17:49;-1.30;99.90
9403;DHT22;4741;49.834;10.740;2024-01-16T04:20:16;-1.30;99.90
9403;DHT22;4741;49.834;10.740;2024-01-16T04:22:43;-1.30;99.90
9403;DHT22;4741;49.834;10.740;2024-01-16T04:25:09;-1.40;99.90
9403;DHT22;4741;49.834;10.740;2024-01-16T04:27:36;-1.50;99.90
9403;DHT22;4741;49.834;10.740;2024-01-16T04:30:03;-1.70;99.90
9403;DHT22;4741;49.834;10.740;2024-01-16T04:32:30;-1.70;99.90
9403;DHT22;4741;49.834;10.740;2024-01-16T04:34:57;-1.90;99.90
9403;DHT22;4741;49.834;10.740;2024-01-16T04:37:24;-2.00;99.90
9403;DHT22;4741;49.834;10.740;2024-01-16T04:39:51;-2.10;99.90
9403;DHT22;4741;49.834;10.740;2024-01-16T04:42:18;-2.20;99.90
9403;DHT22;4741;49.834;10.740;2024-01-16T04:44:44;-2.20;99.90
9403;DHT22;4741;49.834;10.740;2024-01-16T04:47:11;-2.10;99.90
9403;DHT22;4741;49.834;10.740;2024-01-16T04:49:38;-2.10;99.90
9403;DHT22;4741;49.834;10.740;2024-01-16T04:52:05;-2.20;99.90
9403;DHT22;4741;49.834;10.740;2024-01-16T04:54:31;-2.20;99.90
9403;DHT22;4741;49.834;10.740;2024-01-16T04:56:59;-2.20;99.90
9403;DHT22;4741;49.834;10.740;2024-01-16T04:59:25;-2.20;99.90
9403;DHT22;4741;49.834;10.740;2024-01-16T05:01:52;-2.00;99.90
9403;DHT22;4741;49.834;10.740;2024-01-16T05:04:19;-2.00;99.90
9403;DHT22;4741;49.834;10.740;2024-01-16T05:06:49;-2.10;99.90
9403;DHT22;4741;49.834;10.740;2024-01-16T05:09:15;-2.10;99.90
9403;DHT22;4741;49.834;10.740;2024-01-16T05:11:42;-2.10;99.90
9403;DHT22;4741;49.834;10.740;2024-01-16T05:14:09;-2.00;99.90
9403;DHT22;4741;49.834;10.740;2024-01-16T05:16:36;-2.00;99.90
9403;DHT22;4741;49.834;10.740;2024-01-16T05:19:03;-2.00;99.90
9403;DHT22;4741;49.834;10.740;2024-01-16T05:21:30;-2.00;99.90
9403;DHT22;4741;49.834;10.740;2024-01-16T05:23:56;-2.00;99.90
9403;DHT22;4741;49.834;10.740;2024-01-16T05:26:23;-1.90;99.90
9403;DHT22;4741;49.834;10.740;2024-01-16T05:28:50;-1.90;99.90
9403;DHT22;4741;49.834;10.740;2024-01-16T05:31:17;-1.80;99.90
9403;DHT22;4741;49.834;10.740;2024-01-16T05:33:46;-1.80;99.90
9403;DHT22;4741;49.834;10.740;2024-01-16T05:36:12;-1.70;99.90
9403;DHT22;4741;49.834;10.740;2024-01-16T05:38:39;-1.60;99.90
9403;DHT22;4741;49.834;10.740;2024-01-16T05:41:06;-1.60;99.90
9403;DHT22;4741;49.834;10.740;2024-01-16T05:43:33;-1.60;99.90
9403;DHT22;4741;49.834;10.740;2024-01-16T05:46:00;-1.50;99.90
9403;DHT22;4741;49.834;10.740;2024-01-16T05:48:27;-1.60;99.90
9403;DHT22;4741;49.834;10.740;2024-01-16T05:50:54;-1.50;99.90
9403;DHT22;4741;49.834;10.740;2024-01-16T05:53:21;-1.50;99.90
9403;DHT22;4741;49.834;10.740;2024-01-16T05:55:48;-1.50;99.90
9403;DHT22;4741;49.834;10.740;2024-01-16T05:58:14;-1.60;99.90
9403;DHT22;4741;49.834;10.740;2024-01-16T06:00:41;-1.60;99.90
9403;DHT22;4741;49.834;10.740;2024-01-16T06:03:08;-1.50;99.90
9403;DHT22;4741;49.834;10.740;2024-01-16T06:05:35;-1.50;99.90
9403;DHT22;4741;49.834;10.740;2024-01-16T06:08:01;-1.50;99.90
9403;DHT22;4741;49.834;10.740;2024-01-16T06:10:29;-1.50;99.90
9403;DHT22;4741;49.834;10.740;2024-01-16T06:12:56;-1.50;99.90
9403;DHT22;4741;49.834;10.740;2024-01-16T06:15:22;-1.70;99.90
9403;DHT22;4741;49.834;10.740;2024-01-16T06:17:50;-1.60;99.90
9403;DHT22;4741;49.834;10.740;2024-01-16T06:20:16;-1.60;99.90
9403;DHT22;4741;49.834;10.740;2024-01-16T06:22:44;-1.60;99.90
9403;DHT22;4741;49.834;10.740;2024-01-16T06:25:11;-1.60;99.90
9403;DHT22;4741;49.834;10.740;2024-01-16T06:27:37;-1.60;99.90
9403;DHT22;4741;49.834;10.740;2024-01-16T06:30:04;-1.60;99.90
9403;DHT22;4741;49.834;10.740;2024-01-16T06:32:31;-1.60;99.90
9403;DHT22;4741;49.834;10.740;2024-01-16T06:34:58;-0.70;99.90
9403;DHT22;4741;49.834;10.740;2024-01-16T06:37:25;-1.50;99.90
9403;DHT22;4741;49.834;10.740;2024-01-16T06:39:52;-1.50;99.90
9403;DHT22;4741;49.834;10.740;2024-01-16T06:42:18;-1.50;99.90
9403;DHT22;4741;49.834;10.740;2024-01-16T06:44:46;-1.50;99.90
9403;DHT22;4741;49.834;10.740;2024-01-16T06:47:13;-1.50;99.90
9403;DHT22;4741;49.834;10.740;2024-01-16T06:49:39;-1.60;99.90
9403;DHT22;4741;49.834;10.740;2024-01-16T06:52:07;-1.60;99.90
9403;DHT22;4741;49.834;10.740;2024-01-16T06:54:34;-1.60;99.90
9403;DHT22;4741;49.834;10.740;2024-01-16T06:57:01;-1.70;99.90
9403;DHT22;4741;49.834;10.740;2024-01-16T06:59:27;-1.70;99.90
9403;DHT22;4741;49.834;10.740;2024-01-16T07:01:54;-1.70;99.90
9403;DHT22;4741;49.834;10.740;2024-01-16T07:04:21;-1.70;99.90
9403;DHT22;4741;49.834;10.740;2024-01-16T07:06:48;-1.70;99.90
9403;DHT22;4741;49.834;10.740;2024-01-16T07:09:15;-1.70;99.90
9403;DHT22;4741;49.834;10.740;2024-01-16T07:11:42;-1.80;99.90
9403;DHT22;4741;49.834;10.740;2024-01-16T07:14:09;-1.80;99.90
9403;DHT22;4741;49.834;10.740;2024-01-16T07:16:37;-1.90;99.90
9403;DHT22;4741;49.834;10.740;2024-01-16T07:19:03;-1.80;99.90
9403;DHT22;4741;49.834;10.740;2024-01-16T07:21:30;-1.10;99.90
9403;DHT22;4741;49.834;10.740;2024-01-16T07:23:57;-1.80;99.90
9403;DHT22;4741;49.834;10.740;2024-01-16T07:26:24;-1.20;99.90
9403;DHT22;4741;49.834;10.740;2024-01-16T07:28:51;-1.70;99.90
9403;DHT22;4741;49.834;10.740;2024-01-16T07:31:17;-1.70;99.90
9403;DHT22;4741;49.834;10.740;2024-01-16T07:33:44;-1.70;99.90
9403;DHT22;4741;49.834;10.740;2024-01-16T07:36:11;-1.70;99.90
9403;DHT22;4741;49.834;10.740;2024-01-16T07:38:38;-1.70;99.90
9403;DHT22;4741;49.834;10.740;2024-01-16T07:41:05;-1.70;99.90
9403;DHT22;4741;49.834;10.740;2024-01-16T07:43:32;-1.70;99.90
9403;DHT22;4741;49.834;10.740;2024-01-16T07:45:59;-1.70;99.90
9403;DHT22;4741;49.834;10.740;2024-01-16T07:48:26;-1.70;99.90
9403;DHT22;4741;49.834;10.740;2024-01-16T07:50:53;-1.70;99.90
9403;DHT22;4741;49.834;10.740;2024-01-16T07:53:20;-1.70;99.90
9403;DHT22;4741;49.834;10.740;2024-01-16T07:55:47;-1.70;99.90
9403;DHT22;4741;49.834;10.740;2024-01-16T07:58:13;-1.60;99.90
9403;DHT22;4741;49.834;10.740;2024-01-16T08:00:40;-1.70;99.90
9403;DHT22;4741;49.834;10.740;2024-01-16T08:03:07;-1.70;99.90
9403;DHT22;4741;49.834;10.740;2024-01-16T08:05:34;-1.60;99.90
9403;DHT22;4741;49.834;10.740;2024-01-16T08:08:02;-1.60;99.90
9403;DHT22;4741;49.834;10.740;2024-01-16T08:10:29;-1.70;99.90
9403;DHT22;4741;49.834;10.740;2024-01-16T08:12:56;-1.60;99.90
9403;DHT22;4741;49.834;10.740;2024-01-16T08:15:22;-1.60;99.90
9403;DHT22;4741;49.834;10.740;2024-01-16T08:17:49;-1.50;99.90
9403;DHT22;4741;49.834;10.740;2024-01-16T08:20:16;-1.50;99.90
9403;DHT22;4741;49.834;10.740;2024-01-16T08:22:43;-1.50;99.90
9403;DHT22;4741;49.834;10.740;2024-01-16T08:25:10;-1.50;99.90
9403;DHT22;4741;49.834;10.740;2024-01-16T08:27:36;-1.40;99.90
9403;DHT22;4741;49.834;10.740;2024-01-16T08:30:04;-1.50;99.90
9403;DHT22;4741;49.834;10.740;2024-01-16T08:32:32;-1.50;99.90
9403;DHT22;4741;49.834;10.740;2024-01-16T08:34:59;-1.50;99.90
9403;DHT22;4741;49.834;10.740;2024-01-16T08:37:25;-1.50;99.90
9403;DHT22;4741;49.834;10.740;2024-01-16T08:39:52;-1.40;99.90
9403;DHT22;4741;49.834;10.740;2024-01-16T08:42:19;-1.40;99.90
9403;DHT22;4741;49.834;10.740;2024-01-16T08:44:46;-1.40;99.90
9403;DHT22;4741;49.834;10.740;2024-01-16T08:47:12;-1.40;99.90
9403;DHT22;4741;49.834;10.740;2024-01-16T08:49:39;-1.50;99.90
9403;DHT22;4741;49.834;10.740;2024-01-16T08:52:07;-1.60;99.90
9403;DHT22;4741;49.834;10.740;2024-01-16T08:54:34;-1.50;99.90
9403;DHT22;4741;49.834;10.740;2024-01-16T08:57:00;-1.50;99.90
9403;DHT22;4741;49.834;10.740;2024-01-16T08:59:27;-1.50;99.90
9403;DHT22;4741;49.834;10.740;2024-01-16T09:01:55;-1.40;99.90
9403;DHT22;4741;49.834;10.740;2024-01-16T09:04:22;-1.40;99.90
9403;DHT22;4741;49.834;10.740;2024-01-16T09:06:49;-1.30;99.90
9403;DHT22;4741;49.834;10.740;2024-01-16T09:09:16;-1.30;99.90
9403;DHT22;4741;49.834;10.740;2024-01-16T09:11:43;-1.10;99.90
9403;DHT22;4741;49.834;10.740;2024-01-16T09:14:10;-1.10;99.90
9403;DHT22;4741;49.834;10.740;2024-01-16T09:16:36;-1.00;99.90
9403;DHT22;4741;49.834;10.740;2024-01-16T09:19:03;-1.00;99.90
9403;DHT22;4741;49.834;10.740;2024-01-16T09:21:30;-0.90;99.90
9403;DHT22;4741;49.834;10.740;2024-01-16T09:23:56;-1.00;99.90
9403;DHT22;4741;49.834;10.740;2024-01-16T09:26:24;-1.00;99.90
9403;DHT22;4741;49.834;10.740;2024-01-16T09:28:52;-0.90;99.90
9403;DHT22;4741;49.834;10.740;2024-01-16T09:31:19;-0.80;99.90
9403;DHT22;4741;49.834;10.740;2024-01-16T09:33:46;-0.90;99.90
9403;DHT22;4741;49.834;10.740;2024-01-16T09:36:13;-0.90;99.90
9403;DHT22;4741;49.834;10.740;2024-01-16T09:38:39;-0.70;99.90
9403;DHT22;4741;49.834;10.740;2024-01-16T09:41:06;-0.70;99.90
9403;DHT22;4741;49.834;10.740;2024-01-16T09:43:34;-0.80;99.90
9403;DHT22;4741;49.834;10.740;2024-01-16T09:46:01;-0.90;99.90
9403;DHT22;4741;49.834;10.740;2024-01-16T09:48:29;-0.80;99.90
9403;DHT22;4741;49.834;10.740;2024-01-16T09:50:57;-0.80;99.90
9403;DHT22;4741;49.834;10.740;2024-01-16T09:53:24;-0.80;99.90
9403;DHT22;4741;49.834;10.740;2024-01-16T09:55:51;-0.90;99.90
9403;DHT22;4741;49.834;10.740;2024-01-16T09:58:19;-0.90;99.90
9403;DHT22;4741;49.834;10.740;2024-01-16T10:00:51;-0.80;99.90
9403;DHT22;4741;49.834;10.740;2024-01-16T10:03:19;-0.80;99.90
9403;DHT22;4741;49.834;10.740;2024-01-16T10:05:46;-0.90;99.90
9403;DHT22;4741;49.834;10.740;2024-01-16T10:08:14;-0.70;99.90
9403;DHT22;4741;49.834;10.740;2024-01-16T10:10:41;-0.60;99.90
9403;DHT22;4741;49.834;10.740;2024-01-16T10:13:15;-0.50;99.90
9403;DHT22;4741;49.834;10.740;2024-01-16T10:15:43;-0.50;99.90
9403;DHT22;4741;49.834;10.740;2024-01-16T10:18:21;-0.30;99.90
9403;DHT22;4741;49.834;10.740;2024-01-16T10:20:48;-0.20;99.90
9403;DHT22;4741;49.834;10.740;2024-01-16T10:23:21;-0.10;99.90
9403;DHT22;4741;49.834;10.740;2024-01-16T10:26:04;0.00;99.90
9403;DHT22;4741;49.834;10.740;2024-01-16T10:28:31;0.80;99.90
9403;DHT22;4741;49.834;10.740;2024-01-16T10:31:03;0.10;99.90
9403;DHT22;4741;49.834;10.740;2024-01-16T10:33:31;0.00;99.90
9403;DHT22;4741;49.834;10.740;2024-01-16T10:36:12;0.00;99.90
9403;DHT22;4741;49.834;10.740;2024-01-16T10:38:39;0.10;99.90
9403;DHT22;4741;49.834;10.740;2024-01-16T10:41:11;-0.10;99.90
9403;DHT22;4741;49.834;10.740;2024-01-16T10:43:38;0.00;99.90
9403;DHT22;4741;49.834;10.740;2024-01-16T10:46:08;-0.20;99.90
9403;DHT22;4741;49.834;10.740;2024-01-16T10:48:36;-0.20;99.90
9403;DHT22;4741;49.834;10.740;2024-01-16T10:51:03;-0.10;99.90
9403;DHT22;4741;49.834;10.740;2024-01-16T10:53:32;0.10;99.90
9403;DHT22;4741;49.834;10.740;2024-01-16T10:56:00;0.10;99.90
9403;DHT22;4741;49.834;10.740;2024-01-16T10:58:26;0.10;99.90
9403;DHT22;4741;49.834;10.740;2024-01-16T11:00:57;0.10;99.90
9403;DHT22;4741;49.834;10.740;2024-01-16T11:03:29;0.20;99.90
9403;DHT22;4741;49.834;10.740;2024-01-16T11:05:57;0.10;99.90
9403;DHT22;4741;49.834;10.740;2024-01-16T11:08:24;0.20;99.90
9403;DHT22;4741;49.834;10.740;2024-01-16T11:10:57;0.20;99.90
9403;DHT22;4741;49.834;10.740;2024-01-16T11:13:24;0.30;99.90
9403;DHT22;4741;49.834;10.740;2024-01-16T11:15:51;0.30;99.90
9403;DHT22;4741;49.834;10.740;2024-01-16T11:18:18;0.40;99.90
9403;DHT22;4741;49.834;10.740;2024-01-16T11:20:46;0.30;99.90
9403;DHT22;4741;49.834;10.740;2024-01-16T11:23:31;0.30;99.90
9403;DHT22;4741;49.834;10.740;2024-01-16T11:25:58;0.30;99.90
9403;DHT22;4741;49.834;10.740;2024-01-16T11:28:29;0.30;99.90
9403;DHT22;4741;49.834;10.740;2024-01-16T11:30:58;0.40;99.90
9403;DHT22;4741;49.834;10.740;2024-01-16T11:33:45;0.50;99.90
9403;DHT22;4741;49.834;10.740;2024-01-16T11:36:42;0.40;99.90
9403;DHT22;4741;49.834;10.740;2024-01-16T11:41:47;0.30;99.90
9403;DHT22;4741;49.834;10.740;2024-01-16T11:47:00;0.60;99.90
9403;DHT22;4741;49.834;10.740;2024-01-16T11:49:27;0.60;99.90
9403;DHT22;4741;49.834;10.740;2024-01-16T11:51:53;0.70;99.90
9403;DHT22;4741;49.834;10.740;2024-01-16T11:54:20;0.70;99.90
9403;DHT22;4741;49.834;10.740;2024-01-16T11:56:54;0.60;99.90
9403;DHT22;4741;49.834;10.740;2024-01-16T11:59:41;1.10;99.90
9403;DHT22;4741;49.834;10.740;2024-01-16T12:02:21;0.80;99.90
9403;DHT22;4741;49.834;10.740;2024-01-16T12:04:54;0.80;99.90
9403;DHT22;4741;49.834;10.740;2024-01-16T12:07:23;0.70;99.90
9403;DHT22;4741;49.834;10.740;2024-01-16T12:09:49;1.50;99.90
9403;DHT22;4741;49.834;10.740;2024-01-16T12:12:16;1.00;99.90
9403;DHT22;4741;49.834;10.740;2024-01-16T12:14:51;1.10;99.90
9403;DHT22;4741;49.834;10.740;2024-01-16T12:17:19;0.90;99.90
9403;DHT22;4741;49.834;10.740;2024-01-16T12:19:47;1.20;99.90
9403;DHT22;4741;49.834;10.740;2024-01-16T12:22:14;1.30;99.90
9403;DHT22;4741;49.834;10.740;2024-01-16T12:24:41;1.20;99.90
9403;DHT22;4741;49.834;10.740;2024-01-16T12:27:08;1.30;99.90
9403;DHT22;4741;49.834;10.740;2024-01-16T12:29:35;1.30;99.90
9403;DHT22;4741;49.834;10.740;2024-01-16T12:32:07;1.40;99.90
9403;DHT22;4741;49.834;10.740;2024-01-16T12:34:34;1.40;99.90
9403;DHT22;4741;49.834;10.740;2024-01-16T12:37:05;1.40;99.90
9403;DHT22;4741;49.834;10.740;2024-01-16T12:39:35;1.30;99.90
9403;DHT22;4741;49.834;10.740;2024-01-16T12:42:02;1.40;99.90
9403;DHT22;4741;49.834;10.740;2024-01-16T12:44:28;1.40;99.90
9403;DHT22;4741;49.834;10.740;2024-01-16T12:46:56;1.20;99.90
9403;DHT22;4741;49.834;10.740;2024-01-16T12:49:23;1.10;99.90
9403;DHT22;4741;49.834;10.740;2024-01-16T12:51:50;1.10;99.90
9403;DHT22;4741;49.834;10.740;2024-01-16T12:54:17;0.90;99.90
9403;DHT22;4741;49.834;10.740;2024-01-16T12:56:45;1.70;99.90
9403;DHT22;4741;49.834;10.740;2024-01-16T12:59:12;0.80;99.90
9403;DHT22;4741;49.834;10.740;2024-01-16T13:01:40;0.80;99.90
9403;DHT22;4741;49.834;10.740;2024-01-16T13:04:08;0.60;99.90
9403;DHT22;4741;49.834;10.740;2024-01-16T13:06:35;0.70;99.90
9403;DHT22;4741;49.834;10.740;2024-01-16T13:11:52;0.70;99.90
9403;DHT22;4741;49.834;10.740;2024-01-16T13:14:22;0.60;99.90
9403;DHT22;4741;49.834;10.740;2024-01-16T13:16:50;0.50;99.90
9403;DHT22;4741;49.834;10.740;2024-01-16T13:19:18;0.60;99.90
9403;DHT22;4741;49.834;10.740;2024-01-16T13:21:45;1.00;99.90
9403;DHT22;4741;49.834;10.740;2024-01-16T13:24:12;0.70;99.90
9403;DHT22;4741;49.834;10.740;2024-01-16T13:26:40;0.80;99.90
9403;DHT22;4741;49.834;10.740;2024-01-16T13:29:06;0.90;99.90
9403;DHT22;4741;49.834;10.740;2024-01-16T13:31:33;1.10;99.90
9403;DHT22;4741;49.834;10.740;2024-01-16T13:34:00;1.30;99.90
9403;DHT22;4741;49.834;10.740;2024-01-16T13:36:27;1.50;99.90
9403;DHT22;4741;49.834;10.740;2024-01-16T13:39:14;1.40;99.90
9403;DHT22;4741;49.834;10.740;2024-01-16T13:41:42;1.60;99.90
9403;DHT22;4741;49.834;10.740;2024-01-16T13:44:08;1.80;99.90
9403;DHT22;4741;49.834;10.740;2024-01-16T13:46:36;1.90;99.90
9403;DHT22;4741;49.834;10.740;2024-01-16T13:49:22;1.90;99.90
9403;DHT22;4741;49.834;10.740;2024-01-16T13:51:49;1.70;99.90
9403;DHT22;4741;49.834;10.740;2024-01-16T13:54:16;1.60;99.90
9403;DHT22;4741;49.834;10.740;2024-01-16T13:56:43;1.60;99.90
9403;DHT22;4741;49.834;10.740;2024-01-16T13:59:30;1.40;99.90
9403;DHT22;4741;49.834;10.740;2024-01-16T14:01:57;1.20;99.90
9403;DHT22;4741;49.834;10.740;2024-01-16T14:04:24;1.10;99.90
9403;DHT22;4741;49.834;10.740;2024-01-16T14:06:51;1.00;99.90
9403;DHT22;4741;49.834;10.740;2024-01-16T14:09:38;1.00;99.90
9403;DHT22;4741;49.834;10.740;2024-01-16T14:12:05;1.00;99.90
9403;DHT22;4741;49.834;10.740;2024-01-16T14:14:35;1.00;99.90
9403;DHT22;4741;49.834;10.740;2024-01-16T14:17:02;0.90;99.90
9403;DHT22;4741;49.834;10.740;2024-01-16T14:19:29;1.10;99.90
9403;DHT22;4741;49.834;10.740;2024-01-16T14:21:57;0.40;99.90
9403;DHT22;4741;49.834;10.740;2024-01-16T14:24:25;0.40;99.90
9403;DHT22;4741;49.834;10.740;2024-01-16T14:26:52;0.30;99.90
9403;DHT22;4741;49.834;10.740;2024-01-16T14:29:18;0.30;99.90
9403;DHT22;4741;49.834;10.740;2024-01-16T14:31:45;0.20;99.90
9403;DHT22;4741;49.834;10.740;2024-01-16T14:34:16;0.10;99.90
9403;DHT22;4741;49.834;10.740;2024-01-16T14:36:45;0.10;99.90
9403;DHT22;4741;49.834;10.740;2024-01-16T14:39:12;0.10;99.90
9403;DHT22;4741;49.834;10.740;2024-01-16T14:41:44;0.10;99.90
9403;DHT22;4741;49.834;10.740;2024-01-16T14:44:12;0.10;99.90
9403;DHT22;4741;49.834;10.740;2024-01-16T14:46:40;0.80;99.90
9403;DHT22;4741;49.834;10.740;2024-01-16T14:49:06;0.00;99.90
9403;DHT22;4741;49.834;10.740;2024-01-16T14:51:34;0.00;99.90
9403;DHT22;4741;49.834;10.740;2024-01-16T14:54:02;0.00;99.90
9403;DHT22;4741;49.834;10.740;2024-01-16T14:56:28;-0.10;99.90
9403;DHT22;4741;49.834;10.740;2024-01-16T14:58:57;-0.10;99.90
9403;DHT22;4741;49.834;10.740;2024-01-16T15:01:24;-0.10;99.90
9403;DHT22;4741;49.834;10.740;2024-01-16T15:03:50;0.10;99.90
9403;DHT22;4741;49.834;10.740;2024-01-16T15:06:18;0.00;99.90
9403;DHT22;4741;49.834;10.740;2024-01-16T15:08:45;-0.20;99.90
9403;DHT22;4741;49.834;10.740;2024-01-16T15:11:11;-0.30;99.90
9403;DHT22;4741;49.834;10.740;2024-01-16T15:13:38;-0.30;99.90
9403;DHT22;4741;49.834;10.740;2024-01-16T15:16:05;-0.30;99.90
9403;DHT22;4741;49.834;10.740;2024-01-16T15:18:31;-0.50;99.90
9403;DHT22;4741;49.834;10.740;2024-01-16T15:20:59;-0.50;99.90
9403;DHT22;4741;49.834;10.740;2024-01-16T15:23:26;-0.60;99.90
9403;DHT22;4741;49.834;10.740;2024-01-16T15:25:54;-0.70;99.90
9403;DHT22;4741;49.834;10.740;2024-01-16T15:28:21;-0.70;99.90
9403;DHT22;4741;49.834;10.740;2024-01-16T15:30:48;-0.80;99.90
9403;DHT22;4741;49.834;10.740;2024-01-16T15:33:15;-0.70;99.90
9403;DHT22;4741;49.834;10.740;2024-01-16T15:35:42;-0.80;99.90
9403;DHT22;4741;49.834;10.740;2024-01-16T15:38:08;-0.90;99.90
9403;DHT22;4741;49.834;10.740;2024-01-16T15:40:37;-1.00;99.90
9403;DHT22;4741;49.834;10.740;2024-01-16T15:43:03;-1.00;99.90
9403;DHT22;4741;49.834;10.740;2024-01-16T15:45:30;-1.10;99.90
9403;DHT22;4741;49.834;10.740;2024-01-16T15:47:57;-1.20;99.90
9403;DHT22;4741;49.834;10.740;2024-01-16T15:50:24;-1.30;99.90
9403;DHT22;4741;49.834;10.740;2024-01-16T15:52:53;-1.40;99.90
9403;DHT22;4741;49.834;10.740;2024-01-16T15:55:20;-1.30;99.90
9403;DHT22;4741;49.834;10.740;2024-01-16T15:57:47;-1.40;99.90
9403;DHT22;4741;49.834;10.740;2024-01-16T16:00:14;-1.40;99.90
9403;DHT22;4741;49.834;10.740;2024-01-16T16:02:42;-1.40;99.90